Time;durP1;ratioP1;P1;durP2;ratioP2;P2;SDS_P1;SDS_P2;PMS_P1;PMS_P2;Temp;Humidity;BMP_temperature;BMP_pressure;BME280_temperature;BME280_humidity;BME280_pressure;Samples;Min_cycle;Max_cycle;Signal;HPM_P1;HPM_P2
2021/07/06 00:01:22;;;;;;;6.60;1.15;;;;;;;;;;5069164;28;20279;-64
2021/07/06 00:03:47;;;;;;;1.08;0.60;;;;;;;;;;5067782;28;20019;-64
2021/07/06 00:06:12;;;;;;;4.40;0.90;;;;;;;;;;5062336;28;20012;-64
2021/07/06 00:08:37;;;;;;;4.20;1.00;;;;;;;;;;5072603;28;20262;-64
2021/07/06 00:11:02;;;;;;;4.83;0.80;;;;;;;;;;5073416;28;20270;-64
2021/07/06 00:13:28;;;;;;;0.97;0.80;;;;;;;;;;5072490;28;20344;-64
2021/07/06 00:15:53;;;;;;;1.30;0.90;;;;;;;;;;5071301;28;20301;-64
2021/07/06 00:18:18;;;;;;;5.13;1.15;;;;;;;;;;5072187;28;20263;-64
2021/07/06 00:20:43;;;;;;;2.50;1.00;;;;;;;;;;5078766;28;20122;-64
2021/07/06 00:23:08;;;;;;;4.87;0.60;;;;;;;;;;5075893;28;20285;-64
2021/07/06 00:25:34;;;;;;;2.25;0.90;;;;;;;;;;5072943;28;20258;-64
2021/07/06 00:27:59;;;;;;;4.47;1.00;;;;;;;;;;5070977;28;20384;-64
2021/07/06 00:30:24;;;;;;;1.75;0.85;;;;;;;;;;5062581;28;20342;-64
2021/07/06 00:32:50;;;;;;;3.40;1.10;;;;;;;;;;5069484;28;20028;-64
2021/07/06 00:35:16;;;;;;;2.85;0.95;;;;;;;;;;5072603;28;20056;-63
2021/07/06 00:37:41;;;;;;;3.55;0.80;;;;;;;;;;5073134;28;20035;-64
2021/07/06 00:40:07;;;;;;;1.40;0.80;;;;;;;;;;5072356;28;20028;-64
2021/07/06 00:42:32;;;;;;;2.08;0.70;;;;;;;;;;5072259;28;20020;-64
2021/07/06 00:44:58;;;;;;;6.32;1.10;;;;;;;;;;5069259;28;20020;-64
2021/07/06 00:47:33;;;;;;;2.65;0.90;;;;;;;;;;5064855;28;20028;-64
2021/07/06 00:49:58;;;;;;;1.83;0.70;;;;;;;;;;5068072;28;20028;-64
2021/07/06 00:52:24;;;;;;;2.95;0.77;;;;;;;;;;5069554;28;20032;-64
2021/07/06 00:54:49;;;;;;;3.40;0.73;;;;;;;;;;5072059;28;20161;-64
2021/07/06 00:57:15;;;;;;;1.03;0.77;;;;;;;;;;5071521;28;20052;-64
2021/07/06 00:59:40;;;;;;;4.53;0.93;;;;;;;;;;5068409;28;20284;-64
2021/07/06 01:02:05;;;;;;;1.30;0.75;;;;;;;;;;5059451;28;20554;-64
2021/07/06 01:04:30;;;;;;;1.53;0.73;;;;;;;;;;5072460;28;20020;-64
2021/07/06 01:06:55;;;;;;;6.03;1.17;;;;;;;;;;5071401;28;20308;-64
2021/07/06 01:09:21;;;;;;;3.80;0.97;;;;;;;;;;5072146;28;20265;-64
2021/07/06 01:11:46;;;;;;;7.15;0.70;;;;;;;;;;5071723;28;20258;-64
2021/07/06 01:14:11;;;;;;;1.33;0.70;;;;;;;;;;5072371;28;20016;-64
2021/07/06 01:16:37;;;;;;;1.40;0.80;;;;;;;;;;5072050;28;20032;-64
2021/07/06 01:19:02;;;;;;;3.07;0.73;;;;;;;;;;5071265;28;20320;-64
2021/07/06 01:21:27;;;;;;;4.90;1.00;;;;;;;;;;5071542;28;20711;-64
2021/07/06 01:23:53;;;;;;;6.78;1.25;;;;;;;;;;5070721;28;20024;-64
2021/07/06 01:26:18;;;;;;;5.00;0.82;;;;;;;;;;5069149;28;20020;-64
2021/07/06 01:28:43;;;;;;;1.73;0.93;;;;;;;;;;5071510;28;20396;-64
2021/07/06 01:31:08;;;;;;;1.65;0.60;;;;;;;;;;5071050;28;20350;-64
2021/07/06 01:33:34;;;;;;;1.45;0.65;;;;;;;;;;5071656;28;20028;-64
2021/07/06 01:36:03;;;;;;;2.28;1.00;;;;;;;;;;5070916;28;20025;-63
2021/07/06 01:38:28;;;;;;;4.90;0.93;;;;;;;;;;5071918;28;20378;-64
2021/07/06 01:40:54;;;;;;;1.30;0.73;;;;;;;;;;5071674;28;20032;-64
2021/07/06 01:43:19;;;;;;;5.07;0.80;;;;;;;;;;5062214;28;20025;-64
2021/07/06 01:45:45;;;;;;;3.28;1.25;;;;;;;;;;5053723;28;20017;-64
2021/07/06 01:48:10;;;;;;;2.83;0.93;;;;;;;;;;5071326;28;20020;-64
2021/07/06 01:50:39;;;;;;;14.75;1.05;;;;;;;;;;5070955;28;20024;-64
2021/07/06 01:53:09;;;;;;;1.20;0.80;;;;;;;;;;5067487;28;20036;-64
2021/07/06 01:55:36;;;;;;;3.80;1.00;;;;;;;;;;5071125;28;20115;-64
2021/07/06 01:58:02;;;;;;;3.50;0.95;;;;;;;;;;5071774;28;20108;-64
2021/07/06 02:00:29;;;;;;;1.25;0.70;;;;;;;;;;5069730;28;20491;-64
2021/07/06 02:02:55;;;;;;;6.60;1.20;;;;;;;;;;5071099;28;20025;-64
2021/07/06 02:05:28;;;;;;;4.88;0.90;;;;;;;;;;5070591;28;20020;-64
2021/07/06 02:07:53;;;;;;;2.15;0.70;;;;;;;;;;5071254;28;20020;-64
2021/07/06 02:10:20;;;;;;;3.03;0.75;;;;;;;;;;5071518;28;20135;-64
2021/07/06 02:12:45;;;;;;;1.13;0.70;;;;;;;;;;5070952;28;20058;-64
2021/07/06 02:15:13;;;;;;;1.70;0.82;;;;;;;;;;5069928;28;20142;-64
2021/07/06 02:17:38;;;;;;;3.38;0.65;;;;;;;;;;5069505;28;20074;-64
2021/07/06 02:20:08;;;;;;;1.05;0.50;;;;;;;;;;5068082;28;20090;-64
2021/07/06 02:22:34;;;;;;;2.95;1.02;;;;;;;;;;5071206;28;20031;-64
2021/07/06 02:24:59;;;;;;;4.93;0.95;;;;;;;;;;5069939;28;20029;-64
2021/07/06 02:27:24;;;;;;;2.30;0.70;;;;;;;;;;5070925;28;20021;-65
2021/07/06 02:29:49;;;;;;;5.27;1.33;;;;;;;;;;5065886;28;20295;-63
2021/07/06 02:32:14;;;;;;;5.38;0.60;;;;;;;;;;5056225;28;20785;-64
2021/07/06 02:34:40;;;;;;;5.67;0.90;;;;;;;;;;5067759;28;20469;-64
2021/07/06 02:37:05;;;;;;;1.83;1.17;;;;;;;;;;5069870;28;20320;-64
2021/07/06 02:39:30;;;;;;;3.63;1.25;;;;;;;;;;5070980;28;20265;-64
2021/07/06 02:41:55;;;;;;;1.40;0.70;;;;;;;;;;5070523;28;20047;-64
2021/07/06 02:44:20;;;;;;;0.90;0.60;;;;;;;;;;5065436;28;20286;-64
2021/07/06 02:46:45;;;;;;;2.00;0.83;;;;;;;;;;5069633;28;20263;-64
2021/07/06 02:49:11;;;;;;;3.00;0.80;;;;;;;;;;5069719;28;20686;-64
2021/07/06 02:51:36;;;;;;;9.13;1.07;;;;;;;;;;5068369;28;20270;-64
2021/07/06 02:54:02;;;;;;;1.10;0.60;;;;;;;;;;5070293;28;20251;-63
2021/07/06 02:56:27;;;;;;;1.33;0.80;;;;;;;;;;5069973;28;20024;-64
2021/07/06 02:58:52;;;;;;;0.68;0.52;;;;;;;;;;5062530;28;20020;-64
2021/07/06 03:01:17;;;;;;;2.08;0.98;;;;;;;;;;5069060;28;20028;-64
2021/07/06 03:03:43;;;;;;;2.83;1.03;;;;;;;;;;5070174;28;20016;-64
2021/07/06 03:06:08;;;;;;;2.08;0.80;;;;;;;;;;5069053;28;20693;-64
2021/07/06 03:08:34;;;;;;;2.13;1.10;;;;;;;;;;5070385;28;20103;-64
2021/07/06 03:10:59;;;;;;;3.90;0.68;;;;;;;;;;5070354;28;20407;-64
2021/07/06 03:13:25;;;;;;;1.80;0.55;;;;;;;;;;5067190;28;20027;-64
2021/07/06 03:15:50;;;;;;;4.13;1.10;;;;;;;;;;5069114;28;20036;-64
2021/07/06 03:18:15;;;;;;;0.95;0.65;;;;;;;;;;5068481;28;20489;-64
2021/07/06 03:20:40;;;;;;;2.53;0.90;;;;;;;;;;5069957;28;20029;-64
2021/07/06 03:23:05;;;;;;;5.37;0.70;;;;;;;;;;5070036;28;20809;-64
2021/07/06 03:25:33;;;;;;;3.72;2.00;;;;;;;;;;5069606;28;20271;-64
2021/07/06 03:27:59;;;;;;;3.95;0.82;;;;;;;;;;5069987;28;20086;-64
2021/07/06 03:30:26;;;;;;;1.33;0.68;;;;;;;;;;5069488;28;20077;-63
2021/07/06 03:32:53;;;;;;;1.08;0.68;;;;;;;;;;5069639;28;20481;-64
2021/07/06 03:35:18;;;;;;;1.25;0.50;;;;;;;;;;5069414;28;20028;-64
2021/07/06 03:37:44;;;;;;;3.47;1.10;;;;;;;;;;5069347;28;20031;-64
2021/07/06 03:40:10;;;;;;;1.27;0.93;;;;;;;;;;5069886;28;20089;-64
2021/07/06 03:42:35;;;;;;;1.27;0.80;;;;;;;;;;5073829;28;20524;-64
2021/07/06 03:45:00;;;;;;;5.22;1.17;;;;;;;;;;5072556;28;20108;-64
2021/07/06 03:47:26;;;;;;;2.55;1.00;;;;;;;;;;5070512;28;20103;-64
2021/07/06 03:49:51;;;;;;;5.93;1.92;;;;;;;;;;5074099;28;20028;-64
2021/07/06 03:52:16;;;;;;;4.57;1.40;;;;;;;;;;5073220;28;20036;-65
2021/07/06 03:54:41;;;;;;;3.22;0.50;;;;;;;;;;5073093;28;20853;-64
2021/07/06 03:57:06;;;;;;;6.13;1.27;;;;;;;;;;5073592;28;20532;-64
2021/07/06 03:59:32;;;;;;;2.30;1.02;;;;;;;;;;5071187;28;20259;-64
2021/07/06 04:01:57;;;;;;;3.70;1.27;;;;;;;;;;5058390;28;20017;-64
2021/07/06 04:04:23;;;;;;;4.80;1.33;;;;;;;;;;5073607;28;20024;-64
2021/07/06 04:06:49;;;;;;;2.67;0.70;;;;;;;;;;5072475;28;20929;-64
2021/07/06 04:09:14;;;;;;;7.60;1.07;;;;;;;;;;5078989;28;20020;-64
2021/07/06 04:11:40;;;;;;;3.70;0.98;;;;;;;;;;5093979;28;20254;-64
2021/07/06 04:14:05;;;;;;;3.03;1.23;;;;;;;;;;5088132;28;20560;-64
2021/07/06 04:16:30;;;;;;;1.20;0.85;;;;;;;;;;5072856;28;20024;-64
2021/07/06 04:18:55;;;;;;;3.78;0.73;;;;;;;;;;5073231;28;20052;-64
2021/07/06 04:21:21;;;;;;;8.50;1.20;;;;;;;;;;5072925;28;20028;-64
2021/07/06 04:23:46;;;;;;;1.60;0.60;;;;;;;;;;5073081;28;20354;-64
2021/07/06 04:26:11;;;;;;;2.25;0.80;;;;;;;;;;5072445;28;20016;-64
2021/07/06 04:28:36;;;;;;;6.72;1.23;;;;;;;;;;5073025;28;20040;-64
2021/07/06 04:31:02;;;;;;;4.57;1.40;;;;;;;;;;5071735;28;20073;-64
2021/07/06 04:33:27;;;;;;;7.28;1.85;;;;;;;;;;5060413;28;20762;-64
2021/07/06 04:35:53;;;;;;;5.50;1.20;;;;;;;;;;5067247;28;20444;-64
2021/07/06 04:38:18;;;;;;;3.47;1.10;;;;;;;;;;5066095;28;20032;-64
2021/07/06 04:40:43;;;;;;;2.67;1.30;;;;;;;;;;5072901;28;20354;-64
2021/07/06 04:43:08;;;;;;;5.83;1.10;;;;;;;;;;5072669;28;20040;-64
2021/07/06 04:45:34;;;;;;;3.20;1.52;;;;;;;;;;5072667;28;20739;-64
2021/07/06 04:47:59;;;;;;;10.25;2.10;;;;;;;;;;5072355;28;20012;-64
2021/07/06 04:50:25;;;;;;;5.63;0.90;;;;;;;;;;5072308;28;20032;-64
2021/07/06 04:52:50;;;;;;;3.43;1.20;;;;;;;;;;5071354;28;20074;-64
2021/07/06 04:55:16;;;;;;;2.97;1.17;;;;;;;;;;5070563;28;20266;-64
2021/07/06 04:57:42;;;;;;;7.05;1.45;;;;;;;;;;5072551;28;20020;-64
2021/07/06 05:00:07;;;;;;;2.28;0.95;;;;;;;;;;5070289;28;20024;-65
2021/07/06 05:02:33;;;;;;;4.38;1.83;;;;;;;;;;5071580;28;20023;-64
2021/07/06 05:04:58;;;;;;;5.45;1.38;;;;;;;;;;5095101;22;21566;-66
2021/07/06 05:07:24;;;;;;;1.52;1.10;;;;;;;;;;5067030;28;20071;-66
2021/07/06 05:09:49;;;;;;;3.60;1.67;;;;;;;;;;5071124;28;20029;-66
2021/07/06 05:12:15;;;;;;;7.50;1.85;;;;;;;;;;5071840;28;20474;-66
2021/07/06 05:14:40;;;;;;;5.85;1.77;;;;;;;;;;5070707;28;20512;-66
2021/07/06 05:17:05;;;;;;;7.05;1.58;;;;;;;;;;5056502;28;20110;-66
2021/07/06 05:19:30;;;;;;;7.55;1.55;;;;;;;;;;5067291;28;20039;-66
2021/07/06 05:21:56;;;;;;;12.07;1.80;;;;;;;;;;5050675;28;20436;-66
2021/07/06 05:24:21;;;;;;;4.87;1.97;;;;;;;;;;5058799;28;20067;-66
2021/07/06 05:26:46;;;;;;;2.37;1.50;;;;;;;;;;5050069;28;20291;-66
2021/07/06 05:29:11;;;;;;;3.60;1.40;;;;;;;;;;5049102;28;20301;-66
2021/07/06 05:31:37;;;;;;;1.55;1.00;;;;;;;;;;5060292;28;20516;-67
2021/07/06 05:34:02;;;;;;;6.25;1.42;;;;;;;;;;5050798;28;20020;-67
2021/07/06 05:36:27;;;;;;;5.03;1.30;;;;;;;;;;5062287;28;20484;-67
2021/07/06 05:38:53;;;;;;;7.93;1.33;;;;;;;;;;5066741;28;20282;-67
2021/07/06 05:41:18;;;;;;;4.03;1.17;;;;;;;;;;5068093;28;20332;-67
2021/07/06 05:43:44;;;;;;;4.78;1.80;;;;;;;;;;5069008;28;20032;-66
2021/07/06 05:46:09;;;;;;;7.25;1.70;;;;;;;;;;5068249;28;20021;-66
2021/07/06 05:48:34;;;;;;;4.85;1.35;;;;;;;;;;5050735;28;20439;-66
2021/07/06 05:50:59;;;;;;;11.10;1.93;;;;;;;;;;5064963;28;20116;-66
2021/07/06 05:53:25;;;;;;;2.95;1.50;;;;;;;;;;5068746;28;20274;-66
2021/07/06 05:55:50;;;;;;;3.08;1.65;;;;;;;;;;5068542;28;20060;-66
2021/07/06 05:58:15;;;;;;;8.43;1.98;;;;;;;;;;5069587;28;20024;-66
2021/07/06 06:00:42;;;;;;;10.50;1.55;;;;;;;;;;5056769;28;20025;-66
2021/07/06 06:03:08;;;;;;;6.85;2.25;;;;;;;;;;5055304;28;20025;-66
2021/07/06 06:05:34;;;;;;;3.15;1.75;;;;;;;;;;5065989;28;20030;-66
2021/07/06 06:07:59;;;;;;;5.00;1.42;;;;;;;;;;5064480;28;20021;-66
2021/07/06 06:10:24;;;;;;;6.53;1.77;;;;;;;;;;5061778;28;20032;-66
2021/07/06 06:12:49;;;;;;;9.50;2.30;;;;;;;;;;5068912;28;20369;-66
2021/07/06 06:15:14;;;;;;;7.35;2.30;;;;;;;;;;5069379;28;20661;-66
2021/07/06 06:17:40;;;;;;;8.10;2.10;;;;;;;;;;5070492;28;20054;-66
2021/07/06 06:20:06;;;;;;;7.72;2.83;;;;;;;;;;5067179;28;20048;-66
2021/07/06 06:22:31;;;;;;;4.38;2.20;;;;;;;;;;5060323;28;20366;-67
2021/07/06 06:24:56;;;;;;;5.47;1.77;;;;;;;;;;5060184;28;20075;-66
2021/07/06 06:27:21;;;;;;;3.92;1.98;;;;;;;;;;5059697;28;20063;-68
2021/07/06 06:29:46;;;;;;;6.13;2.43;;;;;;;;;;5053166;28;20105;-68
2021/07/06 06:32:12;;;;;;;3.70;2.00;;;;;;;;;;5050974;28;20255;-65
2021/07/06 06:34:37;;;;;;;10.57;2.33;;;;;;;;;;5064159;28;20623;-65
2021/07/06 06:37:02;;;;;;;8.90;1.35;;;;;;;;;;5051290;28;20270;-65
2021/07/06 06:39:27;;;;;;;3.75;1.00;;;;;;;;;;5064670;28;20033;-68
2021/07/06 06:41:53;;;;;;;2.50;1.90;;;;;;;;;;5058221;28;20107;-67
2021/07/06 06:44:18;;;;;;;2.53;1.37;;;;;;;;;;5060225;28;20724;-68
2021/07/06 06:46:43;;;;;;;5.95;2.38;;;;;;;;;;5064250;28;20328;-68
2021/07/06 06:49:08;;;;;;;3.75;2.03;;;;;;;;;;5068809;28;20075;-68
2021/07/06 06:51:34;;;;;;;8.00;2.10;;;;;;;;;;5064524;28;20029;-65
2021/07/06 06:54:01;;;;;;;11.95;3.08;;;;;;;;;;5069267;28;20463;-65
2021/07/06 06:56:26;;;;;;;2.65;1.77;;;;;;;;;;5061745;28;20029;-65
2021/07/06 06:58:51;;;;;;;5.90;2.20;;;;;;;;;;5065897;28;20621;-65
2021/07/06 07:01:16;;;;;;;12.60;2.28;;;;;;;;;;5068882;28;20447;-65
2021/07/06 07:03:42;;;;;;;4.53;1.63;;;;;;;;;;5051777;28;20020;-65
2021/07/06 07:06:07;;;;;;;6.07;1.93;;;;;;;;;;5068649;28;20342;-68
2021/07/06 07:08:32;;;;;;;0.60;0.60;;;;;;;;;;5067665;28;20251;-68
2021/07/06 07:10:57;;;;;;;4.80;1.10;;;;;;;;;;5066923;28;20146;-68
2021/07/06 07:13:24;;;;;;;3.72;1.45;;;;;;;;;;5053554;28;20272;-68
2021/07/06 07:15:49;;;;;;;2.63;1.42;;;;;;;;;;5053492;28;20025;-68
2021/07/06 07:18:15;;;;;;;5.25;1.20;;;;;;;;;;5050439;28;20025;-68
2021/07/06 07:20:40;;;;;;;1.60;1.05;;;;;;;;;;5062130;28;20035;-67
2021/07/06 07:23:05;;;;;;;2.17;1.13;;;;;;;;;;5052441;28;20028;-67
2021/07/06 07:25:32;;;;;;;4.40;1.42;;;;;;;;;;5058862;28;20447;-67
2021/07/06 07:27:57;;;;;;;6.40;1.77;;;;;;;;;;5070427;28;20044;-67
2021/07/06 07:30:22;;;;;;;6.97;2.20;;;;;;;;;;5059560;28;20469;-67
2021/07/06 07:32:48;;;;;;;8.27;1.88;;;;;;;;;;5051223;28;20272;-67
2021/07/06 07:35:14;;;;;;;6.22;2.13;;;;;;;;;;5053931;28;20477;-67
2021/07/06 07:37:39;;;;;;;6.63;2.03;;;;;;;;;;5056562;28;20536;-67
2021/07/06 07:40:05;;;;;;;2.42;1.48;;;;;;;;;;5053921;28;20041;-67
2021/07/06 07:42:31;;;;;;;7.15;1.98;;;;;;;;;;5062340;28;20028;-67
2021/07/06 07:44:56;;;;;;;3.05;1.85;;;;;;;;;;5064043;28;20533;-67
2021/07/06 07:47:21;;;;;;;4.23;1.60;;;;;;;;;;5068437;28;20385;-67
2021/07/06 07:49:46;;;;;;;6.40;2.10;;;;;;;;;;5055691;28;20276;-67
2021/07/06 07:52:11;;;;;;;1.17;1.00;;;;;;;;;;5056027;28;20295;-67
2021/07/06 07:54:37;;;;;;;4.97;2.03;;;;;;;;;;5065490;28;20284;-67
2021/07/06 07:57:03;;;;;;;3.72;1.23;;;;;;;;;;5068531;28;20070;-67
2021/07/06 07:59:29;;;;;;;6.97;2.03;;;;;;;;;;5059198;28;20035;-67
2021/07/06 08:01:55;;;;;;;5.65;2.13;;;;;;;;;;5064588;28;20104;-67
2021/07/06 08:04:20;;;;;;;5.30;1.65;;;;;;;;;;5051724;28;20112;-67
2021/07/06 08:06:45;;;;;;;5.43;2.50;;;;;;;;;;5062327;28;20020;-67
2021/07/06 08:09:10;;;;;;;2.40;1.80;;;;;;;;;;5069907;28;20270;-67
2021/07/06 08:11:36;;;;;;;3.10;2.07;;;;;;;;;;5056465;28;20291;-67
2021/07/06 08:14:01;;;;;;;2.47;1.88;;;;;;;;;;5055121;28;20266;-67
2021/07/06 08:16:26;;;;;;;3.13;1.80;;;;;;;;;;5060797;28;20013;-67
2021/07/06 08:18:51;;;;;;;2.53;1.83;;;;;;;;;;5053346;28;20815;-67
2021/07/06 08:21:17;;;;;;;11.60;1.58;;;;;;;;;;5062184;28;20340;-67
2021/07/06 08:23:42;;;;;;;4.78;2.28;;;;;;;;;;5051475;28;20381;-67
2021/07/06 08:26:07;;;;;;;2.47;1.80;;;;;;;;;;5054398;28;20088;-67
2021/07/06 08:28:32;;;;;;;3.92;1.55;;;;;;;;;;5057413;28;20285;-67
2021/07/06 08:30:57;;;;;;;5.07;1.97;;;;;;;;;;5069065;28;20032;-67
2021/07/06 08:33:23;;;;;;;1.98;1.25;;;;;;;;;;5070056;28;20647;-67
2021/07/06 08:35:48;;;;;;;5.57;1.55;;;;;;;;;;5062006;28;20489;-67
2021/07/06 08:38:14;;;;;;;6.65;2.42;;;;;;;;;;5073428;28;20025;-67
2021/07/06 08:40:40;;;;;;;10.05;1.55;;;;;;;;;;5061750;28;20028;-67
2021/07/06 08:43:06;;;;;;;6.00;1.60;;;;;;;;;;5061528;28;20439;-67
2021/07/06 08:45:32;;;;;;;6.07;1.70;;;;;;;;;;5064797;28;20044;-67
2021/07/06 08:47:57;;;;;;;7.00;1.60;;;;;;;;;;5069244;28;20051;-67
2021/07/06 08:50:23;;;;;;;4.30;1.63;;;;;;;;;;5060486;28;20055;-67
2021/07/06 08:52:48;;;;;;;2.80;1.58;;;;;;;;;;5062574;28;20031;-67
2021/07/06 08:55:14;;;;;;;9.77;1.50;;;;;;;;;;5070727;28;20021;-67
2021/07/06 08:57:40;;;;;;;3.75;1.70;;;;;;;;;;5064851;28;20087;-67
2021/07/06 09:00:07;;;;;;;4.40;1.90;;;;;;;;;;5055933;28;20427;-67
2021/07/06 09:02:33;;;;;;;3.13;1.10;;;;;;;;;;5053146;28;20502;-67
2021/07/06 09:04:58;;;;;;;4.32;2.17;;;;;;;;;;5058085;28;20025;-67
2021/07/06 09:07:37;;;;;;;6.93;1.23;;;;;;;;;;5055573;28;20017;-67
2021/07/06 09:10:10;;;;;;;3.33;1.53;;;;;;;;;;5052652;28;20255;-67
2021/07/06 09:12:35;;;;;;;1.45;0.45;;;;;;;;;;5061467;28;20082;-67
2021/07/06 09:15:16;;;;;;;7.97;2.08;;;;;;;;;;5061824;28;20028;-67
2021/07/06 09:17:41;;;;;;;5.63;1.70;;;;;;;;;;5069011;28;20492;-67
2021/07/06 09:20:09;;;;;;;7.85;2.05;;;;;;;;;;5072599;28;20112;-67
2021/07/06 09:22:35;;;;;;;1.63;0.75;;;;;;;;;;5065550;28;20016;-67
2021/07/06 09:25:04;;;;;;;2.85;1.80;;;;;;;;;;5070591;28;20028;-67
2021/07/06 09:27:34;;;;;;;6.93;1.83;;;;;;;;;;5058068;28;20028;-67
2021/07/06 09:30:05;;;;;;;1.90;0.98;;;;;;;;;;5053217;28;20032;-67
2021/07/06 09:32:31;;;;;;;2.15;1.48;;;;;;;;;;5053346;28;20063;-67
2021/07/06 09:34:56;;;;;;;2.38;1.33;;;;;;;;;;5066989;28;20096;-67
2021/07/06 09:37:21;;;;;;;2.95;1.27;;;;;;;;;;5069655;28;20036;-67
2021/07/06 09:39:46;;;;;;;2.70;1.23;;;;;;;;;;5069625;28;20032;-67
2021/07/06 09:42:14;;;;;;;1.20;0.90;;;;;;;;;;5064974;28;20270;-67
2021/07/06 09:44:42;;;;;;;5.30;1.38;;;;;;;;;;5064007;28;20271;-67
2021/07/06 09:47:12;;;;;;;5.22;1.30;;;;;;;;;;5051831;28;20023;-67
2021/07/06 09:49:52;;;;;;;6.97;1.90;;;;;;;;;;5056336;28;20051;-67
2021/07/06 09:52:17;;;;;;;;;;;;;;;;;;5065736;28;20021;-67
2021/07/06 09:54:46;;;;;;;2.00;1.27;;;;;;;;;;5069398;28;19916;-67
2021/07/06 09:57:20;;;;;;;3.90;1.50;;;;;;;;;;5070926;28;20020;-67
2021/07/06 09:59:57;;;;;;;1.55;0.85;;;;;;;;;;5059867;28;20532;-67
2021/07/06 10:02:22;;;;;;;4.18;1.42;;;;;;;;;;5063859;28;20028;-67
2021/07/06 10:04:51;;;;;;;3.83;1.65;;;;;;;;;;5071618;28;20020;-67
2021/07/06 10:07:17;;;;;;;3.00;1.20;;;;;;;;;;5051841;28;20031;-67
2021/07/06 10:09:42;;;;;;;1.83;1.20;;;;;;;;;;5042181;28;20025;-68
2021/07/06 10:12:08;;;;;;;2.05;1.20;;;;;;;;;;5070376;28;20102;-67
2021/07/06 10:14:33;;;;;;;5.43;0.90;;;;;;;;;;5064255;28;20025;-67
2021/07/06 10:16:58;;;;;;;1.33;0.80;;;;;;;;;;5067886;28;20027;-67
2021/07/06 10:19:24;;;;;;;1.27;0.90;;;;;;;;;;5062712;28;20099;-67
2021/07/06 10:21:49;;;;;;;1.00;0.68;;;;;;;;;;5070394;28;20282;-67
2021/07/06 10:24:15;;;;;;;5.13;0.85;;;;;;;;;;5067501;28;20449;-67
2021/07/06 10:26:41;;;;;;;2.80;0.80;;;;;;;;;;5060125;28;20027;-67
2021/07/06 10:29:06;;;;;;;2.33;1.10;;;;;;;;;;5051908;28;20507;-67
2021/07/06 10:31:39;;;;;;;2.17;0.95;;;;;;;;;;5061652;28;20036;-67
2021/07/06 10:34:17;;;;;;;1.98;0.85;;;;;;;;;;5054482;28;20024;-67
2021/07/06 10:36:45;;;;;;;1.83;0.70;;;;;;;;;;5060114;28;20642;-67
2021/07/06 10:39:10;;;;;;;1.08;0.68;;;;;;;;;;5067555;28;20099;-67
2021/07/06 10:41:36;;;;;;;4.88;0.93;;;;;;;;;;5055478;28;20683;-68
2021/07/06 10:44:02;;;;;;;1.58;0.80;;;;;;;;;;5068074;28;20393;-66
2021/07/06 10:46:30;;;;;;;2.47;0.70;;;;;;;;;;5058024;28;20024;-66
2021/07/06 10:49:11;;;;;;;0.50;0.47;;;;;;;;;;5050786;28;20047;-66
2021/07/06 10:51:37;;;;;;;2.03;0.65;;;;;;;;;;5053377;28;20032;-66
2021/07/06 10:54:22;;;;;;;7.80;0.80;;;;;;;;;;5060191;28;20029;-66
2021/07/06 10:56:49;;;;;;;1.05;0.45;;;;;;;;;;5059928;28;20033;-66
2021/07/06 10:59:26;;;;;;;0.82;0.57;;;;;;;;;;5063215;28;20016;-66
2021/07/06 11:01:53;;;;;;;1.38;0.60;;;;;;;;;;5064591;28;20076;-66
2021/07/06 11:04:42;;;;;;;1.48;0.30;;;;;;;;;;5053857;28;20107;-66
2021/07/06 11:07:11;;;;;;;5.53;0.68;;;;;;;;;;5082463;22;20556;-64
2021/07/06 11:09:36;;;;;;;0.90;0.30;;;;;;;;;;5051278;28;20037;-65
2021/07/06 11:12:22;;;;;;;0.80;0.47;;;;;;;;;;5054517;28;20067;-64
2021/07/06 11:14:49;;;;;;;1.58;0.50;;;;;;;;;;5059492;28;20469;-64
2021/07/06 11:17:30;;;;;;;1.48;0.40;;;;;;;;;;5036777;28;20096;-64
2021/07/06 11:19:59;;;;;;;0.95;0.38;;;;;;;;;;5030515;28;20056;-64
2021/07/06 11:22:37;;;;;;;4.73;0.50;;;;;;;;;;5036362;28;20018;-64
2021/07/06 11:25:15;;;;;;;2.22;0.30;;;;;;;;;;5029953;28;20456;-65
2021/07/06 11:27:57;;;;;;;1.10;0.50;;;;;;;;;;5032339;28;20624;-64
2021/07/06 11:30:27;;;;;;;0.85;0.20;;;;;;;;;;5030019;28;20021;-64
2021/07/06 11:33:01;;;;;;;0.30;0.20;;;;;;;;;;5031679;28;20021;-65
2021/07/06 11:35:26;;;;;;;0.70;0.20;;;;;;;;;;5037433;28;20091;-65
2021/07/06 11:37:51;;;;;;;3.58;0.50;;;;;;;;;;5030657;28;20033;-64
2021/07/06 11:40:17;;;;;;;1.48;0.50;;;;;;;;;;5031732;28;20120;-64
2021/07/06 11:42:44;;;;;;;1.15;0.40;;;;;;;;;;5033437;28;20022;-65
2021/07/06 11:45:09;;;;;;;5.85;0.60;;;;;;;;;;5030704;28;20021;-64
2021/07/06 11:47:35;;;;;;;1.48;0.60;;;;;;;;;;5032030;28;20045;-65
2021/07/06 11:50:00;;;;;;;0.67;0.30;;;;;;;;;;5037689;28;20488;-64
2021/07/06 11:52:25;;;;;;;0.20;0.20;;;;;;;;;;5038302;28;20292;-65
2021/07/06 11:54:52;;;;;;;0.60;0.30;;;;;;;;;;5032142;28;20764;-64
2021/07/06 11:57:17;;;;;;;2.40;0.50;;;;;;;;;;5044271;28;20275;-64
2021/07/06 11:59:42;;;;;;;1.33;0.40;;;;;;;;;;5030160;28;20029;-64
2021/07/06 12:02:09;;;;;;;4.43;0.40;;;;;;;;;;5042349;28;20674;-64
2021/07/06 12:04:34;;;;;;;4.15;0.60;;;;;;;;;;5047773;28;20107;-63
2021/07/06 12:07:03;;;;;;;1.08;0.30;;;;;;;;;;5044267;28;20101;-64
2021/07/06 12:09:28;;;;;;;8.60;0.90;;;;;;;;;;5035529;28;20052;-62
2021/07/06 12:12:05;;;;;;;2.53;0.70;;;;;;;;;;5033164;28;20111;-64
2021/07/06 12:14:30;;;;;;;1.73;0.38;;;;;;;;;;5046915;28;20333;-64
2021/07/06 12:16:55;;;;;;;2.38;0.60;;;;;;;;;;5046258;28;20494;-64
2021/07/06 12:19:21;;;;;;;5.57;0.75;;;;;;;;;;5048197;28;20040;-64
2021/07/06 12:21:47;;;;;;;1.48;0.90;;;;;;;;;;5051762;28;20032;-64
2021/07/06 12:24:13;;;;;;;3.15;0.57;;;;;;;;;;5035847;28;20100;-64
2021/07/06 12:26:39;;;;;;;3.15;0.50;;;;;;;;;;5035995;28;20121;-64
2021/07/06 12:29:04;;;;;;;0.75;0.40;;;;;;;;;;5033694;28;20025;-64
2021/07/06 12:31:31;;;;;;;6.55;0.30;;;;;;;;;;5032957;28;20032;-64
2021/07/06 12:34:08;;;;;;;2.22;0.55;;;;;;;;;;5042885;28;20075;-64
2021/07/06 12:36:59;;;;;;;3.38;0.70;;;;;;;;;;5039457;28;20429;-65
2021/07/06 12:39:26;;;;;;;7.07;1.38;;;;;;;;;;5032051;28;20029;-65
2021/07/06 12:41:51;;;;;;;0.30;0.30;;;;;;;;;;5035060;28;20039;-65
2021/07/06 12:44:18;;;;;;;2.75;0.55;;;;;;;;;;5032766;28;20018;-66
2021/07/06 12:46:43;;;;;;;5.32;0.47;;;;;;;;;;5032357;28;20025;-65
2021/07/06 12:49:08;;;;;;;2.73;0.47;;;;;;;;;;5034129;28;20041;-65
2021/07/06 12:51:33;;;;;;;1.93;0.50;;;;;;;;;;5034073;28;20268;-65
2021/07/06 12:54:06;;;;;;;1.25;0.60;;;;;;;;;;5034873;28;20276;-65
2021/07/06 12:56:32;;;;;;;1.92;0.60;;;;;;;;;;5043508;28;20394;-65
2021/07/06 12:59:16;;;;;;;1.10;0.40;;;;;;;;;;5037083;28;20071;-65
2021/07/06 13:01:41;;;;;;;1.77;0.57;;;;;;;;;;5032938;28;20041;-66
2021/07/06 13:04:07;;;;;;;2.97;0.70;;;;;;;;;;5042568;28;20017;-66
2021/07/06 13:06:32;;;;;;;3.30;0.77;;;;;;;;;;5052363;28;20029;-65
2021/07/06 13:08:57;;;;;;;3.95;0.55;;;;;;;;;;5036420;28;20033;-65
2021/07/06 13:11:26;;;;;;;3.80;0.38;;;;;;;;;;5048366;28;20025;-65
2021/07/06 13:13:53;;;;;;;6.00;0.47;;;;;;;;;;5038834;28;20021;-65
2021/07/06 13:16:24;;;;;;;6.50;0.88;;;;;;;;;;5038461;28;20451;-65
2021/07/06 13:18:49;;;;;;;4.50;0.63;;;;;;;;;;5035671;28;20057;-65
2021/07/06 13:21:21;;;;;;;3.25;0.50;;;;;;;;;;5030780;28;20049;-65
2021/07/06 13:23:47;;;;;;;4.45;0.57;;;;;;;;;;5031616;28;20022;-65
2021/07/06 13:26:13;;;;;;;3.85;0.82;;;;;;;;;;5031755;28;20112;-65
2021/07/06 13:28:38;;;;;;;3.95;0.55;;;;;;;;;;5028496;28;20093;-65
2021/07/06 13:31:05;;;;;;;6.68;0.80;;;;;;;;;;5029025;28;20040;-65
2021/07/06 13:33:30;;;;;;;2.80;0.60;;;;;;;;;;5030341;28;20087;-65
2021/07/06 13:35:56;;;;;;;5.25;0.82;;;;;;;;;;5034019;28;20021;-65
2021/07/06 13:38:22;;;;;;;2.35;0.60;;;;;;;;;;5042126;28;20032;-65
2021/07/06 13:40:48;;;;;;;3.65;0.70;;;;;;;;;;5049961;28;20385;-65
2021/07/06 13:43:14;;;;;;;4.38;0.57;;;;;;;;;;5035523;28;20032;-65
2021/07/06 13:45:39;;;;;;;2.60;0.60;;;;;;;;;;5030961;28;20056;-65
2021/07/06 13:48:05;;;;;;;4.93;0.65;;;;;;;;;;5041808;28;20576;-65
2021/07/06 13:50:30;;;;;;;4.03;0.30;;;;;;;;;;5033812;28;20033;-65
2021/07/06 13:52:57;;;;;;;3.28;0.73;;;;;;;;;;5031416;28;20041;-65
2021/07/06 13:57:47;;;;;;;5.63;1.43;;;;;;;;;;5037216;28;20112;-65
2021/07/06 14:00:13;;;;;;;5.67;0.90;;;;;;;;;;5035875;28;20370;-65
2021/07/06 14:02:38;;;;;;;6.10;0.93;;;;;;;;;;5036139;28;20264;-65
2021/07/06 14:05:03;;;;;;;1.75;0.60;;;;;;;;;;5032301;28;20068;-65
2021/07/06 14:07:29;;;;;;;2.33;0.50;;;;;;;;;;5031650;28;20021;-65
2021/07/06 14:09:54;;;;;;;3.28;0.47;;;;;;;;;;5032521;28;20113;-65
2021/07/06 14:12:19;;;;;;;5.33;0.93;;;;;;;;;;5035762;28;20428;-65
2021/07/06 14:14:45;;;;;;;3.00;0.50;;;;;;;;;;5034249;28;20752;-65
2021/07/06 14:17:10;;;;;;;3.30;0.57;;;;;;;;;;5036974;28;20027;-65
2021/07/06 14:19:35;;;;;;;5.18;0.75;;;;;;;;;;5046416;28;20491;-65
2021/07/06 14:22:01;;;;;;;6.27;0.90;;;;;;;;;;5050912;28;20025;-65
2021/07/06 14:24:26;;;;;;;3.63;0.90;;;;;;;;;;5049463;28;20385;-65
2021/07/06 14:26:52;;;;;;;1.17;0.80;;;;;;;;;;5041497;28;20021;-65
2021/07/06 14:29:17;;;;;;;7.95;0.80;;;;;;;;;;5030587;28;20013;-65
2021/07/06 14:31:42;;;;;;;1.75;0.68;;;;;;;;;;5033941;28;20028;-65
2021/07/06 14:34:10;;;;;;;1.02;0.40;;;;;;;;;;5043315;28;20033;-65
2021/07/06 14:36:35;;;;;;;3.28;0.80;;;;;;;;;;5041074;28;20021;-65
2021/07/06 14:39:00;;;;;;;2.72;0.50;;;;;;;;;;5031820;28;20108;-65
2021/07/06 14:41:25;;;;;;;3.30;0.50;;;;;;;;;;5030889;28;20520;-65